sensor_id;sensor_type;location;lat;lon;timestamp;pressure;altitude;pressure_sealevel;temperature;humidity
37066;BME280;22981;43.080;25.550;2023-03-04T00:00:23;99714.19;;;5.55;87.19
37066;BME280;22981;43.080;25.550;2023-03-04T00:02:51;99724.61;;;5.56;87.07
37066;BME280;22981;43.080;25.550;2023-03-04T00:05:18;99723.83;;;5.51;87.08
37066;BME280;22981;43.080;25.550;2023-03-04T00:07:46;99725.03;;;5.49;87.11
37066;BME280;22981;43.080;25.550;2023-03-04T00:10:13;99730.54;;;5.43;87.20
37066;BME280;22981;43.080;25.550;2023-03-04T00:12:41;99727.77;;;5.41;87.45
37066;BME280;22981;43.080;25.550;2023-03-04T00:15:09;99724.91;;;5.42;87.63
37066;BME280;22981;43.080;25.550;2023-03-04T00:17:36;99727.22;;;5.45;87.62
37066;BME280;22981;43.080;25.550;2023-03-04T00:20:04;99719.88;;;5.47;87.54
37066;BME280;22981;43.080;25.550;2023-03-04T00:22:32;99716.37;;;5.51;87.54
37066;BME280;22981;43.080;25.550;2023-03-04T00:24:59;99710.23;;;5.50;87.33
37066;BME280;22981;43.080;25.550;2023-03-04T00:27:27;99713.75;;;5.47;87.30
37066;BME280;22981;43.080;25.550;2023-03-04T00:29:55;99711.64;;;5.42;87.47
37066;BME280;22981;43.080;25.550;2023-03-04T00:32:23;99708.98;;;5.42;87.66
37066;BME280;22981;43.080;25.550;2023-03-04T00:34:50;99704.33;;;5.44;87.66
37066;BME280;22981;43.080;25.550;2023-03-04T00:37:18;99702.00;;;5.45;87.64
37066;BME280;22981;43.080;25.550;2023-03-04T00:39:45;99702.81;;;5.46;87.63
37066;BME280;22981;43.080;25.550;2023-03-04T00:42:13;99703.17;;;5.43;87.55
37066;BME280;22981;43.080;25.550;2023-03-04T00:44:40;99700.42;;;5.36;87.59
37066;BME280;22981;43.080;25.550;2023-03-04T00:47:08;99704.48;;;5.28;87.65
37066;BME280;22981;43.080;25.550;2023-03-04T00:49:35;99698.41;;;5.19;87.96
37066;BME280;22981;43.080;25.550;2023-03-04T00:52:03;99698.92;;;5.19;88.23
37066;BME280;22981;43.080;25.550;2023-03-04T00:54:31;99696.08;;;5.20;88.30
37066;BME280;22981;43.080;25.550;2023-03-04T00:56:58;99701.54;;;5.23;88.30
37066;BME280;22981;43.080;25.550;2023-03-04T00:59:26;99702.48;;;5.26;88.29
37066;BME280;22981;43.080;25.550;2023-03-04T01:01:53;99700.66;;;5.26;88.21
37066;BME280;22981;43.080;25.550;2023-03-04T01:04:21;99707.80;;;5.26;88.15
37066;BME280;22981;43.080;25.550;2023-03-04T01:06:48;99699.33;;;5.26;88.14
37066;BME280;22981;43.080;25.550;2023-03-04T01:09:16;99704.98;;;5.27;88.18
37066;BME280;22981;43.080;25.550;2023-03-04T01:11:44;99697.65;;;5.30;88.15
37066;BME280;22981;43.080;25.550;2023-03-04T01:14:11;99697.33;;;5.28;88.03
37066;BME280;22981;43.080;25.550;2023-03-04T01:16:39;99702.14;;;5.29;87.99
37066;BME280;22981;43.080;25.550;2023-03-04T01:19:06;99709.47;;;5.27;88.02
37066;BME280;22981;43.080;25.550;2023-03-04T01:21:34;99704.35;;;5.21;87.98
37066;BME280;22981;43.080;25.550;2023-03-04T01:24:01;99708.41;;;5.13;87.95
37066;BME280;22981;43.080;25.550;2023-03-04T01:26:29;99715.57;;;5.09;88.13
37066;BME280;22981;43.080;25.550;2023-03-04T01:28:56;99712.60;;;5.08;88.21
37066;BME280;22981;43.080;25.550;2023-03-04T01:31:24;99713.42;;;5.08;88.15
37066;BME280;22981;43.080;25.550;2023-03-04T01:33:52;99711.59;;;5.09;88.06
37066;BME280;22981;43.080;25.550;2023-03-04T01:36:19;99707.30;;;5.08;87.97
37066;BME280;22981;43.080;25.550;2023-03-04T01:38:47;99709.63;;;5.07;87.89
37066;BME280;22981;43.080;25.550;2023-03-04T01:41:16;99712.95;;;5.05;87.75
37066;BME280;22981;43.080;25.550;2023-03-04T01:43:45;99712.00;;;5.01;87.69
37066;BME280;22981;43.080;25.550;2023-03-04T01:46:12;99716.14;;;5.00;87.66
37066;BME280;22981;43.080;25.550;2023-03-04T01:48:43;99709.82;;;5.01;87.69
37066;BME280;22981;43.080;25.550;2023-03-04T01:51:16;99713.33;;;5.01;87.65
37066;BME280;22981;43.080;25.550;2023-03-04T01:53:43;99708.02;;;5.01;87.68
37066;BME280;22981;43.080;25.550;2023-03-04T01:59:12;99697.41;;;5.01;87.67
37066;BME280;22981;43.080;25.550;2023-03-04T02:01:46;99698.73;;;5.01;87.66
37066;BME280;22981;43.080;25.550;2023-03-04T02:04:15;99696.74;;;4.99;87.60
37066;BME280;22981;43.080;25.550;2023-03-04T02:06:44;99700.41;;;4.98;87.62
37066;BME280;22981;43.080;25.550;2023-03-04T02:09:13;99697.12;;;4.92;87.73
37066;BME280;22981;43.080;25.550;2023-03-04T02:11:42;99699.33;;;4.89;87.92
37066;BME280;22981;43.080;25.550;2023-03-04T02:14:11;99691.71;;;4.86;88.10
37066;BME280;22981;43.080;25.550;2023-03-04T02:16:39;99686.88;;;4.89;88.20
37066;BME280;22981;43.080;25.550;2023-03-04T02:19:19;99681.70;;;4.92;88.26
37066;BME280;22981;43.080;25.550;2023-03-04T02:21:40;99681.86;;;4.94;88.24
37066;BME280;22981;43.080;25.550;2023-03-04T02:24:33;99686.16;;;4.95;88.21
37066;BME280;22981;43.080;25.550;2023-03-04T02:26:59;99688.66;;;4.97;88.22
37066;BME280;22981;43.080;25.550;2023-03-04T02:29:27;99688.66;;;4.97;88.03
37066;BME280;22981;43.080;25.550;2023-03-04T02:31:55;99691.31;;;4.97;88.07
37066;BME280;22981;43.080;25.550;2023-03-04T02:34:26;99690.61;;;4.99;88.08
37066;BME280;22981;43.080;25.550;2023-03-04T02:36:53;99693.96;;;4.97;88.02
37066;BME280;22981;43.080;25.550;2023-03-04T02:39:42;99696.77;;;4.95;88.06
37066;BME280;22981;43.080;25.550;2023-03-04T02:42:09;99692.79;;;4.95;88.14
37066;BME280;22981;43.080;25.550;2023-03-04T02:44:40;99685.34;;;4.95;88.14
37066;BME280;22981;43.080;25.550;2023-03-04T02:47:11;99685.66;;;4.96;88.08
37066;BME280;22981;43.080;25.550;2023-03-04T02:49:40;99689.79;;;4.98;88.04
37066;BME280;22981;43.080;25.550;2023-03-04T02:52:14;99687.96;;;4.99;87.96
37066;BME280;22981;43.080;25.550;2023-03-04T02:54:41;99690.45;;;4.96;87.93
37066;BME280;22981;43.080;25.550;2023-03-04T02:57:11;99687.67;;;4.94;87.92
37066;BME280;22981;43.080;25.550;2023-03-04T02:59:39;99690.98;;;4.92;88.02
37066;BME280;22981;43.080;25.550;2023-03-04T03:02:08;99680.72;;;4.93;88.01
37066;BME280;22981;43.080;25.550;2023-03-04T03:04:37;99684.01;;;4.95;87.98
37066;BME280;22981;43.080;25.550;2023-03-04T03:07:05;99686.98;;;4.96;87.92
37066;BME280;22981;43.080;25.550;2023-03-04T03:09:32;99696.42;;;4.98;87.90
37066;BME280;22981;43.080;25.550;2023-03-04T03:12:00;99683.47;;;4.99;87.79
37066;BME280;22981;43.080;25.550;2023-03-04T03:14:28;99685.47;;;5.01;87.73
37066;BME280;22981;43.080;25.550;2023-03-04T03:16:55;99685.12;;;5.00;87.68
37066;BME280;22981;43.080;25.550;2023-03-04T03:19:23;99681.33;;;4.99;87.64
37066;BME280;22981;43.080;25.550;2023-03-04T03:21:50;99689.79;;;4.98;87.64
37066;BME280;22981;43.080;25.550;2023-03-04T03:24:18;99693.96;;;4.97;87.60
37066;BME280;22981;43.080;25.550;2023-03-04T03:26:45;99689.82;;;4.94;87.64
37066;BME280;22981;43.080;25.550;2023-03-04T03:29:13;99690.64;;;4.95;87.72
37066;BME280;22981;43.080;25.550;2023-03-04T03:31:41;99685.49;;;4.97;87.74
37066;BME280;22981;43.080;25.550;2023-03-04T03:34:08;99688.27;;;5.00;87.73
37066;BME280;22981;43.080;25.550;2023-03-04T03:36:36;99695.23;;;5.01;87.64
37066;BME280;22981;43.080;25.550;2023-03-04T03:39:03;99691.31;;;4.97;87.47
37066;BME280;22981;43.080;25.550;2023-03-04T03:41:31;99685.69;;;4.92;87.58
37066;BME280;22981;43.080;25.550;2023-03-04T03:43:58;99685.55;;;4.89;87.71
37066;BME280;22981;43.080;25.550;2023-03-04T03:46:27;99692.34;;;4.88;87.87
37066;BME280;22981;43.080;25.550;2023-03-04T03:48:55;99689.56;;;4.85;87.93
37066;BME280;22981;43.080;25.550;2023-03-04T03:51:22;99696.52;;;4.86;88.04
37066;BME280;22981;43.080;25.550;2023-03-04T03:53:50;99698.16;;;4.87;88.01
37066;BME280;22981;43.080;25.550;2023-03-04T03:56:17;99686.91;;;4.85;88.00
37066;BME280;22981;43.080;25.550;2023-03-04T03:58:45;99686.94;;;4.81;88.07
37066;BME280;22981;43.080;25.550;2023-03-04T04:01:13;99693.57;;;4.81;88.21
37066;BME280;22981;43.080;25.550;2023-03-04T04:03:40;99691.73;;;4.82;88.24
37066;BME280;22981;43.080;25.550;2023-03-04T04:06:08;99694.89;;;4.81;88.23
37066;BME280;22981;43.080;25.550;2023-03-04T04:08:35;99695.40;;;4.81;88.34
37066;BME280;22981;43.080;25.550;2023-03-04T04:11:03;99696.03;;;4.83;88.37
37066;BME280;22981;43.080;25.550;2023-03-04T04:13:30;99696.70;;;4.85;88.33
37066;BME280;22981;43.080;25.550;2023-03-04T04:15:58;99696.35;;;4.84;88.32
37066;BME280;22981;43.080;25.550;2023-03-04T04:18:25;99696.03;;;4.83;88.34
37066;BME280;22981;43.080;25.550;2023-03-04T04:20:53;99700.83;;;4.83;88.37
37066;BME280;22981;43.080;25.550;2023-03-04T04:23:21;99699.70;;;4.82;88.37
37066;BME280;22981;43.080;25.550;2023-03-04T04:25:48;99699.38;;;4.81;88.44
37066;BME280;22981;43.080;25.550;2023-03-04T04:28:16;99697.20;;;4.84;88.48
37066;BME280;22981;43.080;25.550;2023-03-04T04:30:44;99691.88;;;4.88;88.41
37066;BME280;22981;43.080;25.550;2023-03-04T04:33:11;99693.14;;;4.92;88.36
37066;BME280;22981;43.080;25.550;2023-03-04T04:35:39;99690.14;;;4.95;88.25
37066;BME280;22981;43.080;25.550;2023-03-04T04:38:07;99687.98;;;4.95;88.17
37066;BME280;22981;43.080;25.550;2023-03-04T04:40:35;99685.66;;;4.96;88.15
37066;BME280;22981;43.080;25.550;2023-03-04T04:43:03;99683.34;;;4.97;88.17
37066;BME280;22981;43.080;25.550;2023-03-04T04:45:31;99678.86;;;4.97;88.07
37066;BME280;22981;43.080;25.550;2023-03-04T04:47:58;99685.49;;;4.97;88.09
37066;BME280;22981;43.080;25.550;2023-03-04T04:50:26;99682.84;;;4.97;88.07
37066;BME280;22981;43.080;25.550;2023-03-04T04:52:54;99682.69;;;4.95;87.95
37066;BME280;22981;43.080;25.550;2023-03-04T04:55:21;99681.70;;;4.92;88.01
37066;BME280;22981;43.080;25.550;2023-03-04T04:57:49;99687.83;;;4.92;88.12
37066;BME280;22981;43.080;25.550;2023-03-04T05:00:17;99685.18;;;4.92;88.18
37066;BME280;22981;43.080;25.550;2023-03-04T05:02:45;99692.16;;;4.93;88.23
37066;BME280;22981;43.080;25.550;2023-03-04T05:05:13;99697.09;;;4.96;88.25
37066;BME280;22981;43.080;25.550;2023-03-04T05:07:40;99698.89;;;5.00;88.12
37066;BME280;22981;43.080;25.550;2023-03-04T05:10:09;99700.53;;;5.01;88.06
37066;BME280;22981;43.080;25.550;2023-03-04T05:12:36;99702.71;;;5.01;87.98
37066;BME280;22981;43.080;25.550;2023-03-04T05:15:04;99703.53;;;5.02;87.99
37066;BME280;22981;43.080;25.550;2023-03-04T05:17:32;99706.19;;;5.02;87.97
37066;BME280;22981;43.080;25.550;2023-03-04T05:19:59;99706.84;;;5.00;87.97
37066;BME280;22981;43.080;25.550;2023-03-04T05:22:27;99711.33;;;4.99;88.04
37066;BME280;22981;43.080;25.550;2023-03-04T05:24:55;99711.14;;;5.01;88.09
37066;BME280;22981;43.080;25.550;2023-03-04T05:27:22;99715.98;;;5.01;87.95
37066;BME280;22981;43.080;25.550;2023-03-04T05:29:50;99718.47;;;4.99;87.93
37066;BME280;22981;43.080;25.550;2023-03-04T05:32:18;99721.31;;;4.97;87.98
37066;BME280;22981;43.080;25.550;2023-03-04T05:34:46;99723.97;;;4.97;87.99
37066;BME280;22981;43.080;25.550;2023-03-04T05:37:13;99724.28;;;4.98;88.02
37066;BME280;22981;43.080;25.550;2023-03-04T05:39:41;99724.92;;;5.00;88.07
37066;BME280;22981;43.080;25.550;2023-03-04T05:42:08;99730.38;;;5.03;88.09
37066;BME280;22981;43.080;25.550;2023-03-04T05:44:36;99732.69;;;5.06;88.06
37066;BME280;22981;43.080;25.550;2023-03-04T05:47:04;99734.49;;;5.10;87.97
37066;BME280;22981;43.080;25.550;2023-03-04T05:49:31;99731.78;;;5.14;87.90
37066;BME280;22981;43.080;25.550;2023-03-04T05:51:59;99731.63;;;5.15;87.87
37066;BME280;22981;43.080;25.550;2023-03-04T05:54:26;99730.27;;;5.19;87.81
37066;BME280;22981;43.080;25.550;2023-03-04T05:56:54;99732.92;;;5.19;87.72
37066;BME280;22981;43.080;25.550;2023-03-04T05:59:22;99732.92;;;5.19;87.72
37066;BME280;22981;43.080;25.550;2023-03-04T06:01:49;99730.90;;;5.21;87.70
37066;BME280;22981;43.080;25.550;2023-03-04T06:04:17;99729.76;;;5.20;87.69
37066;BME280;22981;43.080;25.550;2023-03-04T06:06:44;99727.42;;;5.21;87.74
37066;BME280;22981;43.080;25.550;2023-03-04T06:09:13;99726.59;;;5.20;87.71
37066;BME280;22981;43.080;25.550;2023-03-04T06:11:41;99731.59;;;5.19;87.75
37066;BME280;22981;43.080;25.550;2023-03-04T06:14:09;99725.46;;;5.19;87.67
37066;BME280;22981;43.080;25.550;2023-03-04T06:16:36;99730.80;;;5.15;87.71
37066;BME280;22981;43.080;25.550;2023-03-04T06:19:04;99730.01;;;5.10;87.82
37066;BME280;22981;43.080;25.550;2023-03-04T06:21:31;99733.83;;;5.08;87.96
37066;BME280;22981;43.080;25.550;2023-03-04T06:23:59;99727.70;;;5.07;88.10
37066;BME280;22981;43.080;25.550;2023-03-04T06:26:26;99723.53;;;5.09;88.19
37066;BME280;22981;43.080;25.550;2023-03-04T06:28:54;99729.82;;;5.12;88.21
37066;BME280;22981;43.080;25.550;2023-03-04T06:31:22;99726.00;;;5.14;88.19
37066;BME280;22981;43.080;25.550;2023-03-04T06:33:50;99724.16;;;5.15;88.14
37066;BME280;22981;43.080;25.550;2023-03-04T06:36:17;99725.11;;;5.18;88.15
37066;BME280;22981;43.080;25.550;2023-03-04T06:38:45;99728.27;;;5.17;88.06
37066;BME280;22981;43.080;25.550;2023-03-04T06:41:13;99725.63;;;5.17;88.12
37066;BME280;22981;43.080;25.550;2023-03-04T06:43:40;99720.98;;;5.19;88.21
37066;BME280;22981;43.080;25.550;2023-03-04T06:46:08;99725.94;;;5.22;88.17
37066;BME280;22981;43.080;25.550;2023-03-04T06:48:36;99724.70;;;5.29;88.23
37066;BME280;22981;43.080;25.550;2023-03-04T06:51:08;99722.80;;;5.38;88.17
37066;BME280;22981;43.080;25.550;2023-03-04T06:53:37;99728.23;;;5.44;88.04
37066;BME280;22981;43.080;25.550;2023-03-04T06:56:05;99732.81;;;5.50;87.82
37066;BME280;22981;43.080;25.550;2023-03-04T06:58:33;99738.59;;;5.54;87.72
37066;BME280;22981;43.080;25.550;2023-03-04T07:01:15;99730.75;;;5.57;87.70
37066;BME280;22981;43.080;25.550;2023-03-04T07:03:43;99729.22;;;5.62;87.71
37066;BME280;22981;43.080;25.550;2023-03-04T07:06:13;99719.88;;;5.66;87.60
37066;BME280;22981;43.080;25.550;2023-03-04T07:08:42;99726.84;;;5.67;87.51
37066;BME280;22981;43.080;25.550;2023-03-04T07:11:10;99726.65;;;5.69;87.54
37066;BME280;22981;43.080;25.550;2023-03-04T07:13:38;99733.13;;;5.70;87.54
37066;BME280;22981;43.080;25.550;2023-03-04T07:16:08;99726.65;;;5.69;87.55
37066;BME280;22981;43.080;25.550;2023-03-04T07:18:36;99723.88;;;5.66;87.60
37066;BME280;22981;43.080;25.550;2023-03-04T07:21:05;99726.02;;;5.67;87.75
37066;BME280;22981;43.080;25.550;2023-03-04T07:23:33;99722.50;;;5.70;87.92
37066;BME280;22981;43.080;25.550;2023-03-04T07:26:01;99719.61;;;5.76;87.90
37066;BME280;22981;43.080;25.550;2023-03-04T07:28:29;99713.75;;;5.81;87.83
37066;BME280;22981;43.080;25.550;2023-03-04T07:31:06;99713.90;;;5.83;87.75
37066;BME280;22981;43.080;25.550;2023-03-04T07:33:26;99716.47;;;5.91;87.80
37066;BME280;22981;43.080;25.550;2023-03-04T07:36:00;99720.76;;;5.96;87.63
37066;BME280;22981;43.080;25.550;2023-03-04T07:38:27;99722.91;;;5.97;87.55
37066;BME280;22981;43.080;25.550;2023-03-04T07:40:58;99716.07;;;5.98;87.50
37066;BME280;22981;43.080;25.550;2023-03-04T07:43:25;99720.20;;;6.01;87.49
37066;BME280;22981;43.080;25.550;2023-03-04T07:45:58;99721.22;;;6.00;87.41
37066;BME280;22981;43.080;25.550;2023-03-04T07:48:26;99721.02;;;6.01;87.39
37066;BME280;22981;43.080;25.550;2023-03-04T07:51:06;99720.98;;;6.06;87.41
37066;BME280;22981;43.080;25.550;2023-03-04T07:53:34;99719.72;;;6.12;87.45
37066;BME280;22981;43.080;25.550;2023-03-04T07:56:03;99727.09;;;6.21;87.34
37066;BME280;22981;43.080;25.550;2023-03-04T07:58:31;99726.37;;;6.27;87.26
37066;BME280;22981;43.080;25.550;2023-03-04T08:00:59;99726.83;;;6.31;87.14
37066;BME280;22981;43.080;25.550;2023-03-04T08:03:27;99725.45;;;6.35;87.05
37066;BME280;22981;43.080;25.550;2023-03-04T08:05:55;99724.69;;;6.41;87.01
37066;BME280;22981;43.080;25.550;2023-03-04T08:08:22;99726.73;;;6.49;86.99
37066;BME280;22981;43.080;25.550;2023-03-04T08:10:50;99714.66;;;6.58;86.92
37066;BME280;22981;43.080;25.550;2023-03-04T08:13:18;99713.53;;;6.67;86.83
37066;BME280;22981;43.080;25.550;2023-03-04T08:15:45;99715.88;;;6.76;86.64
37066;BME280;22981;43.080;25.550;2023-03-04T08:18:13;99714.01;;;6.81;86.53
37066;BME280;22981;43.080;25.550;2023-03-04T08:20:41;99705.45;;;6.86;86.48
37066;BME280;22981;43.080;25.550;2023-03-04T08:23:12;99705.14;;;6.95;86.46
37066;BME280;22981;43.080;25.550;2023-03-04T08:25:40;99703.92;;;7.09;86.37
37066;BME280;22981;43.080;25.550;2023-03-04T08:28:09;99701.38;;;7.22;86.17
37066;BME280;22981;43.080;25.550;2023-03-04T08:30:39;99697.17;;;7.34;85.96
37066;BME280;22981;43.080;25.550;2023-03-04T08:33:07;99694.41;;;7.49;85.79
37066;BME280;22981;43.080;25.550;2023-03-04T08:35:39;99685.81;;;7.64;85.51
37066;BME280;22981;43.080;25.550;2023-03-04T08:38:06;99683.36;;;7.80;85.23
37066;BME280;22981;43.080;25.550;2023-03-04T08:40:34;99685.52;;;8.04;84.86
37066;BME280;22981;43.080;25.550;2023-03-04T08:43:01;99681.31;;;8.23;84.35
37066;BME280;22981;43.080;25.550;2023-03-04T08:45:29;99679.21;;;8.36;83.82
37066;BME280;22981;43.080;25.550;2023-03-04T08:47:57;99674.64;;;8.47;83.07
37066;BME280;22981;43.080;25.550;2023-03-04T08:50:24;99680.44;;;8.58;82.67
37066;BME280;22981;43.080;25.550;2023-03-04T08:52:53;99679.31;;;8.63;82.23
37066;BME280;22981;43.080;25.550;2023-03-04T08:55:20;99670.30;;;8.70;81.97
37066;BME280;22981;43.080;25.550;2023-03-04T08:57:48;99668.50;;;8.91;81.51
37066;BME280;22981;43.080;25.550;2023-03-04T09:00:16;99663.35;;;9.16;80.89
37066;BME280;22981;43.080;25.550;2023-03-04T09:02:43;99660.98;;;9.37;80.02
37066;BME280;22981;43.080;25.550;2023-03-04T09:05:11;99658.41;;;9.52;79.18
37066;BME280;22981;43.080;25.550;2023-03-04T09:07:38;99651.37;;;9.71;77.89
37066;BME280;22981;43.080;25.550;2023-03-04T09:10:06;99649.39;;;9.89;76.72
37066;BME280;22981;43.080;25.550;2023-03-04T09:12:34;99650.56;;;10.07;75.70
37066;BME280;22981;43.080;25.550;2023-03-04T09:15:02;99641.88;;;10.40;74.67
37066;BME280;22981;43.080;25.550;2023-03-04T09:17:31;99644.02;;;10.79;73.88
37066;BME280;22981;43.080;25.550;2023-03-04T09:19:59;99647.45;;;11.18;72.96
37066;BME280;22981;43.080;25.550;2023-03-04T09:22:27;99639.62;;;11.60;71.78
37066;BME280;22981;43.080;25.550;2023-03-04T09:24:54;99640.33;;;11.73;69.25
37066;BME280;22981;43.080;25.550;2023-03-04T09:27:22;99640.68;;;11.77;69.26
37066;BME280;22981;43.080;25.550;2023-03-04T09:29:49;99634.91;;;11.89;68.25
37066;BME280;22981;43.080;25.550;2023-03-04T09:32:17;99635.52;;;11.91;68.18
37066;BME280;22981;43.080;25.550;2023-03-04T09:34:45;99638.32;;;12.15;67.77
37066;BME280;22981;43.080;25.550;2023-03-04T09:37:12;99641.17;;;12.01;67.21
37066;BME280;22981;43.080;25.550;2023-03-04T09:39:40;99634.53;;;11.86;67.07
37066;BME280;22981;43.080;25.550;2023-03-04T09:42:10;99627.77;;;11.83;65.50
37066;BME280;22981;43.080;25.550;2023-03-04T09:44:40;99624.67;;;11.70;65.68
37066;BME280;22981;43.080;25.550;2023-03-04T09:47:16;99616.62;;;11.61;66.37
37066;BME280;22981;43.080;25.550;2023-03-04T09:50:05;99622.66;;;11.57;66.35
37066;BME280;22981;43.080;25.550;2023-03-04T10:00:43;99622.97;;;10.98;66.61
37066;BME280;22981;43.080;25.550;2023-03-04T10:03:18;99619.84;;;10.76;67.21
37066;BME280;22981;43.080;25.550;2023-03-04T10:06:01;99609.30;;;10.66;67.70
37066;BME280;22981;43.080;25.550;2023-03-04T10:16:40;99588.59;;;11.04;67.73
37066;BME280;22981;43.080;25.550;2023-03-04T10:21:51;99585.70;;;10.97;67.81
37066;BME280;22981;43.080;25.550;2023-03-04T10:24:21;99576.20;;;11.10;67.59
37066;BME280;22981;43.080;25.550;2023-03-04T10:27:01;99581.73;;;11.34;66.82
37066;BME280;22981;43.080;25.550;2023-03-04T10:29:31;99569.61;;;11.68;65.94
37066;BME280;22981;43.080;25.550;2023-03-04T10:31:59;99562.22;;;11.82;65.59
37066;BME280;22981;43.080;25.550;2023-03-04T10:34:26;99569.26;;;11.73;65.81
37066;BME280;22981;43.080;25.550;2023-03-04T10:36:59;99564.34;;;11.70;65.64
37066;BME280;22981;43.080;25.550;2023-03-04T10:39:30;99559.66;;;11.57;65.51
37066;BME280;22981;43.080;25.550;2023-03-04T10:42:05;99550.04;;;11.40;65.65
37066;BME280;22981;43.080;25.550;2023-03-04T10:44:30;99548.23;;;11.34;65.59
37066;BME280;22981;43.080;25.550;2023-03-04T10:46:59;99546.45;;;11.37;65.71
37066;BME280;22981;43.080;25.550;2023-03-04T10:49:27;99542.64;;;11.72;65.47
37066;BME280;22981;43.080;25.550;2023-03-04T10:52:13;99539.86;;;12.06;65.22
37066;BME280;22981;43.080;25.550;2023-03-04T10:54:45;99531.71;;;12.43;64.81
37066;BME280;22981;43.080;25.550;2023-03-04T10:57:14;99524.02;;;12.46;64.51
37066;BME280;22981;43.080;25.550;2023-03-04T10:59:47;99518.98;;;12.38;64.14
37066;BME280;22981;43.080;25.550;2023-03-04T11:02:33;99507.80;;;12.32;64.00
37066;BME280;22981;43.080;25.550;2023-03-04T11:05:21;99507.59;;;12.45;63.09
37066;BME280;22981;43.080;25.550;2023-03-04T11:07:54;99504.73;;;12.49;62.97
37066;BME280;22981;43.080;25.550;2023-03-04T11:10:39;99498.67;;;12.54;62.92
37066;BME280;22981;43.080;25.550;2023-03-04T11:13:18;99492.92;;;12.60;63.20
37066;BME280;22981;43.080;25.550;2023-03-04T11:16:04;99484.15;;;12.76;63.35
37066;BME280;22981;43.080;25.550;2023-03-04T11:21:14;99476.84;;;13.09;62.69
37066;BME280;22981;43.080;25.550;2023-03-04T11:23:51;99474.51;;;13.01;62.79
37066;BME280;22981;43.080;25.550;2023-03-04T11:29:23;99466.22;;;12.67;62.99
37066;BME280;22981;43.080;25.550;2023-03-04T11:34:53;99465.85;;;12.40;63.42
37066;BME280;22981;43.080;25.550;2023-03-04T11:37:39;99454.75;;;12.37;63.63
37066;BME280;22981;43.080;25.550;2023-03-04T11:40:27;99449.16;;;12.50;63.61
37066;BME280;22981;43.080;25.550;2023-03-04T11:43:02;99443.81;;;12.73;63.43
37066;BME280;22981;43.080;25.550;2023-03-04T11:46:03;99444.42;;;13.01;63.19
37066;BME280;22981;43.080;25.550;2023-03-04T11:56:33;99425.60;;;13.25;62.11
37066;BME280;22981;43.080;25.550;2023-03-04T12:01:54;99430.07;;;12.84;63.14
37066;BME280;22981;43.080;25.550;2023-03-04T12:15:58;99425.66;;;12.10;64.52
37066;BME280;22981;43.080;25.550;2023-03-04T12:24:14;99416.27;;;12.10;64.72
37066;BME280;22981;43.080;25.550;2023-03-04T12:29:40;99407.93;;;12.09;64.51
37066;BME280;22981;43.080;25.550;2023-03-04T12:35:45;99404.93;;;11.96;64.61
37066;BME280;22981;43.080;25.550;2023-03-04T12:45:43;99399.77;;;11.83;64.94
37066;BME280;22981;43.080;25.550;2023-03-04T12:48:31;99397.90;;;11.84;65.08
37066;BME280;22981;43.080;25.550;2023-03-04T12:56:27;99392.42;;;11.81;65.02
37066;BME280;22981;43.080;25.550;2023-03-04T12:59:04;99392.74;;;11.82;65.05
37066;BME280;22981;43.080;25.550;2023-03-04T13:01:37;99385.44;;;11.80;65.02
37066;BME280;22981;43.080;25.550;2023-03-04T13:04:16;99377.02;;;11.76;64.95
37066;BME280;22981;43.080;25.550;2023-03-04T13:07:16;99374.30;;;11.74;64.91
37066;BME280;22981;43.080;25.550;2023-03-04T13:10:30;99382.39;;;11.76;64.86
37066;BME280;22981;43.080;25.550;2023-03-04T13:12:23;99369.95;;;11.73;64.51
37066;BME280;22981;43.080;25.550;2023-03-04T13:20:41;99358.66;;;11.71;63.99
37066;BME280;22981;43.080;25.550;2023-03-04T13:25:46;99351.06;;;11.68;63.48
37066;BME280;22981;43.080;25.550;2023-03-04T13:28:29;99350.05;;;11.60;63.50
37066;BME280;22981;43.080;25.550;2023-03-04T13:33:43;99338.62;;;11.52;63.88
37066;BME280;22981;43.080;25.550;2023-03-04T13:41:51;99329.65;;;11.59;63.74
37066;BME280;22981;43.080;25.550;2023-03-04T13:44:58;99326.92;;;11.68;63.61
37066;BME280;22981;43.080;25.550;2023-03-04T13:47:26;99321.23;;;11.76;63.44
37066;BME280;22981;43.080;25.550;2023-03-04T13:52:40;99308.69;;;11.88;62.90
37066;BME280;22981;43.080;25.550;2023-03-04T13:55:40;99303.52;;;11.96;62.62
37066;BME280;22981;43.080;25.550;2023-03-04T13:58:22;99299.25;;;12.09;62.33
37066;BME280;22981;43.080;25.550;2023-03-04T14:00:53;99306.14;;;12.17;62.14
37066;BME280;22981;43.080;25.550;2023-03-04T14:03:26;99294.11;;;12.31;62.23
37066;BME280;22981;43.080;25.550;2023-03-04T14:06:24;99292.41;;;12.39;62.11
37066;BME280;22981;43.080;25.550;2023-03-04T14:08:53;99288.83;;;12.48;61.91
37066;BME280;22981;43.080;25.550;2023-03-04T14:13:58;99280.78;;;12.48;61.48
37066;BME280;22981;43.080;25.550;2023-03-04T14:16:27;99282.66;;;12.36;61.69
37066;BME280;22981;43.080;25.550;2023-03-04T14:19:05;99278.46;;;12.28;61.94
37066;BME280;22981;43.080;25.550;2023-03-04T14:21:27;99279.77;;;12.14;61.86
37066;BME280;22981;43.080;25.550;2023-03-04T14:24:06;99275.34;;;11.96;62.29
37066;BME280;22981;43.080;25.550;2023-03-04T14:26:34;99278.15;;;11.80;62.48
37066;BME280;22981;43.080;25.550;2023-03-04T14:29:02;99275.16;;;11.67;62.56
37066;BME280;22981;43.080;25.550;2023-03-04T14:31:33;99275.50;;;11.59;62.74
37066;BME280;22981;43.080;25.550;2023-03-04T14:34:00;99267.70;;;11.58;62.83
37066;BME280;22981;43.080;25.550;2023-03-04T14:36:30;99267.86;;;11.53;62.97
37066;BME280;22981;43.080;25.550;2023-03-04T14:39:01;99262.42;;;11.51;63.18
37066;BME280;22981;43.080;25.550;2023-03-04T14:41:38;99261.33;;;11.49;63.13
37066;BME280;22981;43.080;25.550;2023-03-04T14:44:31;99260.88;;;11.43;63.08
37066;BME280;22981;43.080;25.550;2023-03-04T14:47:10;99258.61;;;11.38;63.06
37066;BME280;22981;43.080;25.550;2023-03-04T14:49:35;99260.36;;;11.32;63.24
37066;BME280;22981;43.080;25.550;2023-03-04T14:52:04;99259.02;;;11.32;63.27